createdAt,value
2023-01-21T00:04:47.683Z,68.71
2023-01-21T00:09:51.552Z,68.43
2023-01-21T00:14:58.289Z,68.35
2023-01-21T00:20:07.074Z,68.05
2023-01-21T00:25:11.064Z,68.22
2023-01-21T00:30:17.668Z,67.34
2023-01-21T00:35:21.895Z,67.61
2023-01-21T00:40:28.113Z,67.88
2023-01-21T00:45:33.831Z,67.79
2023-01-21T00:50:39.439Z,67.56
2023-01-21T00:55:44.057Z,67.39
2023-01-21T01:00:48.850Z,67.12
2023-01-21T01:05:52.535Z,67.21
2023-01-21T01:10:58.069Z,66.78
2023-01-21T01:16:06.290Z,66.86
2023-01-21T01:21:14.382Z,66.66
2023-01-21T01:26:22.799Z,66.64
2023-01-21T01:31:27.693Z,66.82
2023-01-21T01:36:32.850Z,67.31
2023-01-21T01:41:37.968Z,67.00
2023-01-21T01:46:41.771Z,66.71
2023-01-21T01:52:00.735Z,66.68
2023-01-21T01:57:11.136Z,66.42
2023-01-21T02:02:19.620Z,66.03
2023-01-21T02:07:28.131Z,65.73
2023-01-21T02:12:34.328Z,65.45
2023-01-21T02:17:55.804Z,65.72
2023-01-21T02:23:11.307Z,65.31
2023-01-21T02:28:43.691Z,65.14
2023-01-21T02:34:13.673Z,65.33
2023-01-21T02:39:50.299Z,65.11
2023-01-21T02:45:27.985Z,65.18
2023-01-21T02:50:45.692Z,65.04
2023-01-21T02:55:49.426Z,65.51
2023-01-21T03:01:19.442Z,65.45
2023-01-21T03:07:09.248Z,65.56
2023-01-21T03:12:45.077Z,66.08
2023-01-21T03:18:09.541Z,66.33
2023-01-21T03:23:22.408Z,66.20
2023-01-21T03:28:34.149Z,66.12
2023-01-21T03:33:46.609Z,66.62
2023-01-21T03:38:59.518Z,67.04
2023-01-21T03:44:04.533Z,66.45
2023-01-21T03:49:56.932Z,66.47
2023-01-21T03:55:02.262Z,66.74
2023-01-21T04:00:08.155Z,66.63
2023-01-21T04:05:12.002Z,66.51
2023-01-21T04:10:18.525Z,66.65
2023-01-21T04:15:22.417Z,66.92
2023-01-21T04:20:49.736Z,67.00
2023-01-21T04:25:53.734Z,67.04
2023-01-21T04:30:59.283Z,66.82
2023-01-21T04:36:03.846Z,67.37
2023-01-21T04:41:08.467Z,67.13
2023-01-21T04:46:13.921Z,67.32
2023-01-21T04:51:17.746Z,67.85
2023-01-21T04:56:21.579Z,67.79
2023-01-21T05:01:27.730Z,67.97
2023-01-21T05:06:31.582Z,67.77
2023-01-21T05:11:36.981Z,68.22
2023-01-21T05:16:40.858Z,68.37
2023-01-21T05:21:44.937Z,68.31
2023-01-21T05:26:52.459Z,68.47
2023-01-21T05:31:57.855Z,68.56
2023-01-21T05:37:01.660Z,68.63
2023-01-21T05:42:05.885Z,68.33
2023-01-21T05:47:09.675Z,68.17
2023-01-21T05:52:17.398Z,68.45
2023-01-21T05:57:21.210Z,68.13
2023-01-21T06:02:25.658Z,67.51
2023-01-21T06:07:29.550Z,68.23
2023-01-21T06:12:33.545Z,67.55
2023-01-21T06:17:39.345Z,67.97
2023-01-21T06:22:43.165Z,67.95
2023-01-21T06:27:48.227Z,68.48
2023-01-21T06:32:52.862Z,67.69
2023-01-21T06:37:58.001Z,67.66
2023-01-21T06:43:01.816Z,67.70
2023-01-21T06:48:07.098Z,67.69
2023-01-21T06:53:10.606Z,67.46
2023-01-21T06:58:16.699Z,67.62
2023-01-21T07:03:22.956Z,67.61
2023-01-21T07:08:26.887Z,67.52
2023-01-21T07:13:30.584Z,67.51
2023-01-21T07:18:37.725Z,67.61
2023-01-21T07:23:41.737Z,67.01
2023-01-21T07:28:47.606Z,67.26
2023-01-21T07:33:52.548Z,67.36
2023-01-21T07:38:58.628Z,67.46
2023-01-21T07:44:03.158Z,67.67
2023-01-21T07:49:09.473Z,66.95
2023-01-21T07:54:15.303Z,66.24
2023-01-21T07:59:19.959Z,66.51
2023-01-21T08:04:23.830Z,66.71
2023-01-21T08:09:35.569Z,66.86
2023-01-21T08:14:39.635Z,66.49
2023-01-21T08:19:48.466Z,67.33
2023-01-21T08:24:54.875Z,67.21
2023-01-21T08:29:58.866Z,67.20
2023-01-21T08:35:03.483Z,67.61
2023-01-21T08:40:11.277Z,67.23
2023-01-21T08:45:18.777Z,66.85
2023-01-21T08:50:26.260Z,66.50
2023-01-21T08:55:32.524Z,66.40
2023-01-21T09:00:38.969Z,66.61
2023-01-21T09:05:44.369Z,66.87
2023-01-21T09:11:04.918Z,66.56
2023-01-21T09:16:11.877Z,66.61
2023-01-21T09:21:17.270Z,65.95
2023-01-21T09:26:23.730Z,66.52
2023-01-21T09:31:32.940Z,65.86
2023-01-21T09:36:37.916Z,65.61
2023-01-21T09:41:50.777Z,65.69
2023-01-21T09:47:10.671Z,65.48
2023-01-21T09:52:33.797Z,65.87
2023-01-21T09:57:51.550Z,66.15
2023-01-21T10:03:16.027Z,66.02
2023-01-21T10:08:50.042Z,66.04
2023-01-21T10:14:17.618Z,66.00
2023-01-21T10:19:33.240Z,66.01
2023-01-21T10:24:46.969Z,66.01
2023-01-21T10:29:58.728Z,66.10
2023-01-21T10:35:19.503Z,65.92
2023-01-21T10:40:45.359Z,66.40
2023-01-21T10:46:13.621Z,66.49
2023-01-21T10:51:46.833Z,66.41
2023-01-21T10:57:03.328Z,66.55
2023-01-21T11:02:10.757Z,66.66
2023-01-21T11:07:20.636Z,66.57
2023-01-21T11:12:25.459Z,66.20
2023-01-21T11:17:35.344Z,66.21
2023-01-21T11:22:46.229Z,66.69
2023-01-21T11:27:50.015Z,66.40
2023-01-21T11:32:54.668Z,66.75
2023-01-21T11:38:01.347Z,67.22
2023-01-21T11:43:05.076Z,66.69
2023-01-21T11:48:23.761Z,66.66
2023-01-21T11:53:27.857Z,66.57
2023-01-21T11:58:35.542Z,66.54
2023-01-21T12:03:54.859Z,66.69
2023-01-21T12:09:09.769Z,66.56
2023-01-21T12:14:36.556Z,66.39
2023-01-21T12:20:08.132Z,66.65
2023-01-21T12:25:33.439Z,66.62
2023-01-21T12:31:03.434Z,66.50
2023-01-21T12:36:38.503Z,66.64
2023-01-21T12:41:48.402Z,66.51
2023-01-21T12:46:59.598Z,66.41
2023-01-21T12:52:13.507Z,66.85
2023-01-21T12:57:50.934Z,66.58
2023-01-21T13:03:10.997Z,66.13
2023-01-21T13:08:41.477Z,66.40
2023-01-21T13:14:09.320Z,67.09
2023-01-21T13:19:18.027Z,67.17
2023-01-21T13:24:55.481Z,67.02
2023-01-21T13:30:22.311Z,66.74
2023-01-21T13:35:34.654Z,66.88
2023-01-21T13:41:15.136Z,67.02
2023-01-21T13:46:38.614Z,66.83
2023-01-21T13:52:04.740Z,67.27
2023-01-21T13:57:20.439Z,66.79
2023-01-21T14:02:36.866Z,67.06
2023-01-21T14:07:47.243Z,66.88
2023-01-21T14:13:25.746Z,67.34
2023-01-21T14:18:34.804Z,66.97
2023-01-21T14:23:54.866Z,67.41
2023-01-21T14:29:16.801Z,67.24
2023-01-21T14:34:52.773Z,66.99
2023-01-21T14:40:30.425Z,66.99
2023-01-21T14:46:24.869Z,67.15
2023-01-21T14:51:32.731Z,67.21
2023-01-21T14:56:40.952Z,67.25
2023-01-21T15:01:49.221Z,67.49
2023-01-21T15:07:19.094Z,67.10
2023-01-21T15:12:31.406Z,67.30
2023-01-21T15:17:54.833Z,67.04
2023-01-21T15:23:32.580Z,67.22
2023-01-21T15:28:57.520Z,67.15
2023-01-21T15:34:08.009Z,67.01
2023-01-21T15:39:23.968Z,67.25
2023-01-21T15:44:47.122Z,67.51
2023-01-21T15:50:02.858Z,67.17
2023-01-21T15:55:46.646Z,67.12
2023-01-21T16:01:03.144Z,66.96
2023-01-21T16:06:36.684Z,67.12
2023-01-21T16:11:49.393Z,67.41
2023-01-21T16:17:23.972Z,67.21
2023-01-21T16:22:37.415Z,67.37
2023-01-21T16:27:49.446Z,67.65
2023-01-21T16:33:12.446Z,67.57
2023-01-21T16:38:28.289Z,67.31
2023-01-21T16:43:32.603Z,67.59
2023-01-21T16:48:39.638Z,67.35
2023-01-21T16:53:49.978Z,67.16
2023-01-21T16:58:53.896Z,67.04
2023-01-21T17:04:01.966Z,66.92
2023-01-21T17:09:09.314Z,67.02
2023-01-21T17:14:25.819Z,66.91
2023-01-21T17:19:39.541Z,66.90
2023-01-21T17:25:29.975Z,66.70
2023-01-21T17:30:36.489Z,66.53
2023-01-21T17:36:10.881Z,66.41
2023-01-21T17:41:25.669Z,66.20
2023-01-21T17:46:32.955Z,66.29
2023-01-21T17:51:38.902Z,66.50
2023-01-21T17:56:49.471Z,66.31
2023-01-21T18:01:54.168Z,65.78
2023-01-21T18:07:01.138Z,66.07
2023-01-21T18:12:05.174Z,66.04
2023-01-21T18:17:24.747Z,65.90
2023-01-21T18:22:31.262Z,65.61
2023-01-21T18:27:37.634Z,66.18
2023-01-21T18:32:42.794Z,66.30
2023-01-21T18:37:49.417Z,66.56
2023-01-21T18:42:56.613Z,66.32
2023-01-21T18:48:00.706Z,66.03
2023-01-21T18:53:07.076Z,65.90
2023-01-21T18:58:15.370Z,65.56
2023-01-21T19:03:19.532Z,65.73
2023-01-21T19:08:29.403Z,65.29
2023-01-21T19:13:34.787Z,65.05
2023-01-21T19:18:39.860Z,64.78
2023-01-21T19:23:43.655Z,65.71
2023-01-21T19:28:50.901Z,65.29
2023-01-21T19:33:56.533Z,65.59
2023-01-21T19:39:05.540Z,66.01
2023-01-21T19:44:09.558Z,65.42
2023-01-21T19:49:16.519Z,65.55
2023-01-21T19:54:21.983Z,65.46
2023-01-21T19:59:25.710Z,65.28
2023-01-21T20:04:30.463Z,65.35
2023-01-21T20:09:34.233Z,64.92
2023-01-21T20:14:39.007Z,65.10
2023-01-21T20:19:44.320Z,64.96
2023-01-21T20:24:48.988Z,64.94
2023-01-21T20:30:02.791Z,64.66
2023-01-21T20:35:20.555Z,64.76
2023-01-21T20:40:30.910Z,64.92
2023-01-21T20:45:42.737Z,64.75
2023-01-21T20:50:46.903Z,64.63
2023-01-21T20:55:53.033Z,64.46
2023-01-21T21:00:58.967Z,64.67
2023-01-21T21:06:17.731Z,64.46
2023-01-21T21:11:23.368Z,64.53
2023-01-21T21:16:33.311Z,64.39
2023-01-21T21:21:37.294Z,64.36
2023-01-21T21:26:41.635Z,64.32
2023-01-21T21:31:46.064Z,64.40
2023-01-21T21:36:54.451Z,63.88
2023-01-21T21:42:20.468Z,63.65
2023-01-21T21:47:47.011Z,64.05
2023-01-21T21:52:52.926Z,64.14
2023-01-21T21:57:56.619Z,63.94
2023-01-21T22:03:03.241Z,64.36
2023-01-21T22:08:08.676Z,64.23
2023-01-21T22:13:13.150Z,63.96
2023-01-21T22:18:20.698Z,64.26
2023-01-21T22:23:26.725Z,63.97
2023-01-21T22:28:30.754Z,64.19
2023-01-21T22:33:40.108Z,63.97
2023-01-21T22:38:45.923Z,63.26
2023-01-21T22:43:51.376Z,63.06
2023-01-21T22:48:55.967Z,63.79
2023-01-21T22:54:02.712Z,63.85
2023-01-21T22:59:06.468Z,63.38
2023-01-21T23:04:10.849Z,63.41
2023-01-21T23:09:16.701Z,63.16
2023-01-21T23:14:23.127Z,63.35
2023-01-21T23:19:27.433Z,63.94
2023-01-21T23:24:32.977Z,63.69
2023-01-21T23:29:41.414Z,63.52
2023-01-21T23:34:48.403Z,63.54
2023-01-21T23:39:56.986Z,63.34
2023-01-21T23:45:04.036Z,63.61
2023-01-21T23:50:11.959Z,63.57
2023-01-21T23:55:15.775Z,63.55
